CheckWX is a tool to help pilots better visualize weather data.  It is not intended as a substitute for an official pre-flight weather briefing.

12:01:29 UTC

SAME TAF
El Plumerillo Airport
Mendoza, Argentina
TAF SAME 051700Z 0518/0618 14005KT 9999 FEW040 TX28/0520Z TN13/0610Z BECMG 0603/0605 16010KT 6000 DZ OVC030 BECMG 0609/0611 9999 BKN030 BECMG 0614/0616 FEW040

Apr-5@
18:00 UTC

Apr-5 @ 18:00 UTC

Apr-6@
03:00 UTC

Apr-6 @ 03:00 UTC

TAF SAME 051700Z 0518/0618 14005KT 9999 FEW040 TX28/0520Z TN13/0610Z

Expired

Wind
  • 140° at 5 KTS
Cloud Levels
  • Few at 4,000' AGL

Apr-6@
03:00 UTC

Apr-6 @ 03:00 UTC

Apr-6@
09:00 UTC

Apr-6 @ 09:00 UTC

BECMG 0603/0605 16010KT 6000 DZ OVC030

Expired

Wind
  • 160° at 10 KTS
Conditions
Drizzle
Cloud Levels
  • Overcast at 3,000' AGL

Apr-6@
09:00 UTC

Apr-6 @ 09:00 UTC

Apr-6@
14:00 UTC

Apr-6 @ 14:00 UTC

BECMG 0609/0611 9999 BKN030

Becoming

Becoming Conditions expected by Mon, Apr 6, 2020 @ 11:00 UTC

Wind
  • 160° at 10 KTS
Conditions
Drizzle
Cloud Levels
  • Broken at 3,000' AGL

Apr-6@
14:00 UTC

Apr-6 @ 14:00 UTC

Apr-6@
18:00 UTC

Apr-6 @ 18:00 UTC

BECMG 0614/0616 FEW040

Becoming

Becoming Conditions expected by Mon, Apr 6, 2020 @ 16:00 UTC

Wind
  • 160° at 10 KTS
Conditions
Drizzle
Cloud Levels
  • Few at 4,000' AGL